Time,TemperatureF,DewpointF,PressureIn,WindDirection,WindDirectionDegrees,WindSpeedMPH,WindSpeedGustMPH,Humidity,HourlyPrecipIn,Conditions,Clouds,dailyrainin,SoftwareType,DateUTC
2013-10-01 00:01:00,59.5,58.1,30.02,East,96,0.0,0.0,95,0.00,,,0.00,Wunderground v.1.15,2013-10-01 04:01:00,
2013-10-01 00:02:00,59.5,58.1,30.02,East,96,0.0,0.0,95,0.00,,,0.00,Wunderground v.1.15,2013-10-01 04:02:00,
2013-10-01 00:03:00,59.5,58.1,30.02,East,96,0.0,0.0,95,0.00,,,0.00,Wunderground v.1.15,2013-10-01 04:03:00,
2013-10-01 00:04:00,59.5,57.8,30.02,East,96,0.0,0.0,94,0.00,,,0.00,Wunderground v.1.15,2013-10-01 04:04:00,
2013-10-01 00:06:00,59.5,57.8,30.03,East,96,0.0,0.0,94,0.00,,,0.00,Wunderground v.1.15,2013-10-01 04:06:00,
2013-10-01 00:11:00,59.4,57.7,30.02,East,96,0.0,0.0,94,0.00,,,0.00,Wunderground v.1.15,2013-10-01 04:11:00,
2013-10-01 00:16:00,59.2,57.5,30.03,East,96,0.0,0.0,94,0.00,,,0.00,Wunderground v.1.15,2013-10-01 04:16:00,
2013-10-01 00:21:00,59.1,57.4,30.03,East,96,0.0,0.0,94,0.00,,,0.00,Wunderground v.1.15,2013-10-01 04:21:00,
2013-10-01 00:26:00,59.0,57.3,30.03,East,96,0.0,0.0,94,0.00,,,0.00,Wunderground v.1.15,2013-10-01 04:26:00,
2013-10-01 00:32:00,58.9,57.5,30.03,East,96,0.0,0.0,95,0.00,,,0.00,Wunderground v.1.15,2013-10-01 04:32:00,
2013-10-01 00:38:00,58.9,57.5,30.03,East,96,0.0,0.0,95,0.00,,,0.00,Wunderground v.1.15,2013-10-01 04:38:00,
2013-10-01 00:43:00,58.7,57.0,30.03,East,96,0.0,0.0,94,0.00,,,0.00,Wunderground v.1.15,2013-10-01 04:43:00,
2013-10-01 00:49:00,58.6,56.9,30.03,East,96,0.0,0.0,94,0.00,,,0.00,Wunderground v.1.15,2013-10-01 04:49:00,
2013-10-01 00:55:00,58.4,56.7,30.03,East,96,0.0,0.0,94,0.00,,,0.00,Wunderground v.1.15,2013-10-01 04:55:00,
2013-10-01 01:00:00,58.4,57.0,30.03,East,96,0.0,0.0,95,0.00,,,0.00,Wunderground v.1.15,2013-10-01 05:00:00,
2013-10-01 01:06:00,58.5,57.1,30.03,East,96,0.0,0.0,95,0.00,,,0.00,Wunderground v.1.15,2013-10-01 05:06:00,
2013-10-01 01:12:00,58.6,57.2,30.02,East,96,0.0,0.0,95,0.00,,,0.00,Wunderground v.1.15,2013-10-01 05:12:00,
2013-10-01 01:17:00,58.6,57.2,30.02,East,96,0.0,0.0,95,0.00,,,0.00,Wunderground v.1.15,2013-10-01 05:17:00,
2013-10-01 01:22:00,58.6,57.2,30.02,East,96,0.0,0.0,95,0.00,,,0.00,Wunderground v.1.15,2013-10-01 05:22:00,
2013-10-01 01:27:00,58.6,57.2,30.02,East,96,0.0,0.0,95,0.00,,,0.00,Wunderground v.1.15,2013-10-01 05:27:00,
2013-10-01 01:33:00,58.5,57.1,30.03,East,96,0.0,0.0,95,0.00,,,0.00,Wunderground v.1.15,2013-10-01 05:33:00,
2013-10-01 01:38:00,58.5,57.1,30.03,East,96,0.0,0.0,95,0.00,,,0.00,Wunderground v.1.15,2013-10-01 05:38:00,
2013-10-01 01:44:00,58.5,57.1,30.03,East,96,0.0,0.0,95,0.00,,,0.00,Wunderground v.1.15,2013-10-01 05:44:00,
2013-10-01 01:49:00,58.7,57.6,30.03,East,96,0.0,0.0,96,0.00,,,0.00,Wunderground v.1.15,2013-10-01 05:49:00,
2013-10-01 01:54:00,58.7,57.6,30.03,East,96,0.0,0.0,96,0.00,,,0.00,Wunderground v.1.15,2013-10-01 05:54:00,
2013-10-01 02:01:00,58.7,57.3,30.03,East,96,0.0,0.0,95,0.00,,,0.00,Wunderground v.1.15,2013-10-01 06:01:00,
2013-10-01 02:07:00,58.7,57.3,30.03,East,96,0.0,0.0,95,0.00,,,0.00,Wunderground v.1.15,2013-10-01 06:07:00,
2013-10-01 02:12:00,58.7,57.3,30.03,East,96,0.0,0.0,95,0.00,,,0.00,Wunderground v.1.15,2013-10-01 06:12:00,
2013-10-01 02:18:00,58.7,57.3,30.03,East,96,0.0,0.0,95,0.00,,,0.00,Wunderground v.1.15,2013-10-01 06:18:00,
2013-10-01 02:24:00,58.7,57.6,30.03,East,96,0.0,0.0,96,0.00,,,0.00,Wunderground v.1.15,2013-10-01 06:24:00,
2013-10-01 02:29:00,58.7,57.3,30.03,East,96,0.0,0.0,95,0.00,,,0.00,Wunderground v.1.15,2013-10-01 06:29:00,
2013-10-01 02:35:00,58.7,57.6,30.03,East,96,0.0,0.0,96,0.00,,,0.00,Wunderground v.1.15,2013-10-01 06:35:00,
2013-10-01 02:40:00,58.7,57.6,30.03,East,96,0.0,0.0,96,0.00,,,0.00,Wunderground v.1.15,2013-10-01 06:40:00,
2013-10-01 02:45:00,58.7,57.6,30.03,East,96,0.0,0.0,96,0.00,,,0.00,Wunderground v.1.15,2013-10-01 06:45:00,
2013-10-01 02:51:00,58.7,57.6,30.03,East,96,0.0,0.0,96,0.00,,,0.00,Wunderground v.1.15,2013-10-01 06:51:00,
2013-10-01 02:56:00,58.7,57.6,30.03,East,96,0.0,0.0,96,0.00,,,0.00,Wunderground v.1.15,2013-10-01 06:56:00,
2013-10-01 03:02:00,58.6,57.2,30.03,East,96,0.0,0.0,95,0.00,,,0.00,Wunderground v.1.15,2013-10-01 07:02:00,
2013-10-01 03:08:00,58.5,57.1,30.02,East,96,0.0,0.0,95,0.00,,,0.00,Wunderground v.1.15,2013-10-01 07:08:00,
2013-10-01 03:13:00,58.4,57.0,30.03,East,96,0.0,0.0,95,0.00,,,0.00,Wunderground v.1.15,2013-10-01 07:13:00,
2013-10-01 03:19:00,58.4,57.0,30.03,East,96,0.0,0.0,95,0.00,,,0.00,Wunderground v.1.15,2013-10-01 07:19:00,
2013-10-01 03:25:00,58.4,57.3,30.03,East,96,0.0,0.0,96,0.00,,,0.00,Wunderground v.1.15,2013-10-01 07:25:00,
2013-10-01 03:30:00,58.5,57.4,30.03,East,96,0.0,0.0,96,0.00,,,0.00,Wunderground v.1.15,2013-10-01 07:30:00,
2013-10-01 03:36:00,58.5,57.4,30.03,East,96,0.0,0.0,96,0.00,,,0.00,Wunderground v.1.15,2013-10-01 07:36:00,
2013-10-01 03:41:00,58.6,57.5,30.03,East,96,0.0,0.0,96,0.00,,,0.00,Wunderground v.1.15,2013-10-01 07:41:00,
2013-10-01 03:47:00,58.6,57.5,30.03,East,96,0.0,0.0,96,0.00,,,0.00,Wunderground v.1.15,2013-10-01 07:47:00,
2013-10-01 03:52:00,58.6,57.5,30.03,East,96,0.0,0.0,96,0.00,,,0.00,Wunderground v.1.15,2013-10-01 07:52:00,
2013-10-01 03:58:00,58.5,57.4,30.03,East,96,0.0,0.0,96,0.00,,,0.00,Wunderground v.1.15,2013-10-01 07:58:00,
2013-10-01 04:03:00,58.5,57.4,30.03,East,96,0.0,0.0,96,0.00,,,0.00,Wunderground v.1.15,2013-10-01 08:03:00,
2013-10-01 04:09:00,58.5,57.4,30.04,East,96,0.0,0.0,96,0.00,,,0.00,Wunderground v.1.15,2013-10-01 08:09:00,
2013-10-01 04:15:00,58.4,57.3,30.04,East,96,0.0,0.0,96,0.00,,,0.00,Wunderground v.1.15,2013-10-01 08:15:00,
2013-10-01 04:21:00,58.3,57.2,30.04,East,96,0.0,0.0,96,0.00,,,0.00,Wunderground v.1.15,2013-10-01 08:21:00,
2013-10-01 04:27:00,58.3,57.2,30.04,East,96,0.0,0.0,96,0.00,,,0.00,Wunderground v.1.15,2013-10-01 08:27:00,
2013-10-01 04:32:00,58.2,57.1,30.04,East,96,0.0,0.0,96,0.00,,,0.00,Wunderground v.1.15,2013-10-01 08:32:00,
2013-10-01 04:38:00,58.1,57.0,30.04,East,96,0.0,0.0,96,0.00,,,0.00,Wunderground v.1.15,2013-10-01 08:38:00,
2013-10-01 04:43:00,58.0,56.9,30.04,East,96,0.0,0.0,96,0.00,,,0.00,Wunderground v.1.15,2013-10-01 08:43:00,
2013-10-01 04:49:00,57.9,56.8,30.04,East,96,0.0,0.0,96,0.00,,,0.00,Wunderground v.1.15,2013-10-01 08:49:00,
2013-10-01 04:55:00,57.8,56.7,30.04,East,96,0.0,0.0,96,0.00,,,0.00,Wunderground v.1.15,2013-10-01 08:55:00,
2013-10-01 05:02:00,57.7,56.6,30.04,East,96,0.0,0.0,96,0.00,,,0.00,Wunderground v.1.15,2013-10-01 09:02:00,
2013-10-01 05:07:00,57.6,56.5,30.04,East,96,0.0,0.0,96,0.00,,,0.00,Wunderground v.1.15,2013-10-01 09:07:00,
2013-10-01 05:13:00,57.6,56.5,30.04,East,96,0.0,0.0,96,0.00,,,0.00,Wunderground v.1.15,2013-10-01 09:13:00,
2013-10-01 05:18:00,57.6,56.5,30.04,East,96,0.0,0.0,96,0.00,,,0.00,Wunderground v.1.15,2013-10-01 09:18:00,
2013-10-01 05:23:00,57.5,56.4,30.04,East,96,0.0,0.0,96,0.00,,,0.00,Wunderground v.1.15,2013-10-01 09:23:00,
2013-10-01 05:29:00,57.6,56.5,30.05,East,96,0.0,0.0,96,0.00,,,0.00,Wunderground v.1.15,2013-10-01 09:29:00,
2013-10-01 05:35:00,57.7,56.6,30.05,East,96,0.0,0.0,96,0.00,,,0.00,Wunderground v.1.15,2013-10-01 09:35:00,
2013-10-01 05:41:00,57.7,56.6,30.05,East,96,0.0,0.0,96,0.00,,,0.00,Wunderground v.1.15,2013-10-01 09:41:00,
2013-10-01 05:47:00,57.7,56.6,30.05,East,96,0.0,0.0,96,0.00,,,0.00,Wunderground v.1.15,2013-10-01 09:47:00,
2013-10-01 05:53:00,57.7,56.6,30.05,East,96,0.0,0.0,96,0.00,,,0.00,Wunderground v.1.15,2013-10-01 09:53:00,
2013-10-01 05:58:00,57.7,56.6,30.05,East,96,0.0,0.0,96,0.00,,,0.00,Wunderground v.1.15,2013-10-01 09:58:00,
2013-10-01 06:04:00,57.7,56.6,30.05,East,96,0.0,0.0,96,0.00,,,0.00,Wunderground v.1.15,2013-10-01 10:04:00,
2013-10-01 06:10:00,57.7,56.6,30.05,East,96,0.0,0.0,96,0.00,,,0.00,Wunderground v.1.15,2013-10-01 10:10:00,
2013-10-01 06:15:00,57.7,56.6,30.05,East,96,0.0,0.0,96,0.00,,,0.00,Wunderground v.1.15,2013-10-01 10:15:00,
2013-10-01 06:21:00,57.8,56.7,30.06,East,96,0.0,0.0,96,0.00,,,0.00,Wunderground v.1.15,2013-10-01 10:21:00,
2013-10-01 06:26:00,57.8,56.7,30.06,East,96,0.0,0.0,96,0.00,,,0.00,Wunderground v.1.15,2013-10-01 10:26:00,
2013-10-01 06:32:00,57.9,56.8,30.06,East,96,0.0,0.0,96,0.00,,,0.00,Wunderground v.1.15,2013-10-01 10:32:00,
2013-10-01 06:38:00,57.9,56.8,30.06,East,96,0.0,0.0,96,0.00,,,0.00,Wunderground v.1.15,2013-10-01 10:38:00,
2013-10-01 06:43:00,57.9,56.8,30.07,East,96,0.0,0.0,96,0.00,,,0.00,Wunderground v.1.15,2013-10-01 10:43:00,
2013-10-01 06:49:00,58.0,56.9,30.07,East,96,0.0,0.0,96,0.00,,,0.00,Wunderground v.1.15,2013-10-01 10:49:00,
2013-10-01 06:54:00,58.0,56.9,30.07,East,96,0.0,0.0,96,0.00,,,0.00,Wunderground v.1.15,2013-10-01 10:54:00,
2013-10-01 06:59:00,58.1,57.0,30.07,East,96,0.0,0.0,96,0.00,,,0.00,Wunderground v.1.15,2013-10-01 10:59:00,
2013-10-01 07:05:00,58.2,57.1,30.07,East,96,0.0,0.0,96,0.00,,,0.00,Wunderground v.1.15,2013-10-01 11:05:00,
2013-10-01 07:11:00,58.2,57.1,30.07,East,96,0.0,0.0,96,0.00,,,0.00,Wunderground v.1.15,2013-10-01 11:11:00,
2013-10-01 07:16:00,58.2,57.1,30.07,East,96,0.0,0.0,96,0.00,,,0.00,Wunderground v.1.15,2013-10-01 11:16:00,
2013-10-01 07:21:00,58.2,57.1,30.07,East,96,0.0,0.0,96,0.00,,,0.00,Wunderground v.1.15,2013-10-01 11:21:00,
2013-10-01 07:27:00,58.2,57.1,30.07,East,96,0.0,0.0,96,0.00,,,0.00,Wunderground v.1.15,2013-10-01 11:27:00,
2013-10-01 07:32:00,58.3,57.2,30.07,East,96,0.0,0.0,96,0.00,,,0.00,Wunderground v.1.15,2013-10-01 11:32:00,
2013-10-01 07:37:00,58.2,57.1,30.07,East,96,0.0,0.0,96,0.00,,,0.00,Wunderground v.1.15,2013-10-01 11:37:00,
2013-10-01 07:44:00,58.2,57.1,30.07,East,96,0.0,0.0,96,0.00,,,0.00,Wunderground v.1.15,2013-10-01 11:44:00,
2013-10-01 07:49:00,58.1,57.0,30.07,East,96,0.0,0.0,96,0.00,,,0.00,Wunderground v.1.15,2013-10-01 11:49:00,
2013-10-01 07:55:00,58.0,56.9,30.07,East,96,0.0,0.0,96,0.00,,,0.00,Wunderground v.1.15,2013-10-01 11:55:00,
2013-10-01 08:00:00,58.0,56.9,30.08,East,96,0.0,0.0,96,0.00,,,0.00,Wunderground v.1.15,2013-10-01 12:00:00,
2013-10-01 08:06:00,58.0,56.9,30.08,East,96,0.0,0.0,96,0.00,,,0.00,Wunderground v.1.15,2013-10-01 12:06:00,
2013-10-01 08:12:00,58.2,57.1,30.08,East,96,0.0,0.0,96,0.00,,,0.00,Wunderground v.1.15,2013-10-01 12:12:00,
2013-10-01 08:18:00,58.6,57.5,30.08,East,96,0.0,0.0,96,0.00,,,0.00,Wunderground v.1.15,2013-10-01 12:18:00,
2013-10-01 08:23:00,59.0,58.2,30.08,East,96,0.0,0.0,97,0.00,,,0.00,Wunderground v.1.15,2013-10-01 12:23:00,
2013-10-01 08:29:00,59.7,58.8,30.08,East,96,0.0,0.0,97,0.00,,,0.00,Wunderground v.1.15,2013-10-01 12:29:00,
2013-10-01 08:34:00,60.2,59.3,30.08,East,96,0.0,0.0,97,0.00,,,0.00,Wunderground v.1.15,2013-10-01 12:34:00,
2013-10-01 08:40:00,60.8,59.9,30.08,East,96,0.0,0.0,97,0.00,,,0.00,Wunderground v.1.15,2013-10-01 12:40:00,
2013-10-01 08:45:00,61.3,60.2,30.08,East,96,0.0,0.0,96,0.00,,,0.00,Wunderground v.1.15,2013-10-01 12:45:00,
2013-10-01 08:50:00,61.9,60.5,30.08,East,96,0.0,0.0,95,0.00,,,0.00,Wunderground v.1.15,2013-10-01 12:50:00,
2013-10-01 08:56:00,62.6,60.5,30.08,East,96,0.0,0.0,93,0.00,,,0.00,Wunderground v.1.15,2013-10-01 12:56:00,
2013-10-01 09:01:00,63.0,60.6,30.08,East,96,0.0,0.0,92,0.00,,,0.00,Wunderground v.1.15,2013-10-01 13:01:00,
2013-10-01 09:07:00,63.6,60.6,30.08,SSW,192,0.0,0.0,90,0.00,,,0.00,Wunderground v.1.15,2013-10-01 13:07:00,
2013-10-01 09:13:00,64.3,61.0,30.08,SE,126,0.0,0.0,89,0.00,,,0.00,Wunderground v.1.15,2013-10-01 13:13:00,
2013-10-01 09:19:00,64.9,60.9,30.08,ESE,107,0.0,0.0,87,0.00,,,0.00,Wunderground v.1.15,2013-10-01 13:19:00,
2013-10-01 09:25:00,65.6,61.3,30.08,ESE,111,0.0,0.0,86,0.00,,,0.00,Wunderground v.1.15,2013-10-01 13:25:00,
2013-10-01 09:31:00,66.2,61.9,30.08,ESE,111,0.0,0.0,86,0.00,,,0.00,Wunderground v.1.15,2013-10-01 13:31:00,
2013-10-01 09:37:00,66.9,62.2,30.08,SE,132,0.0,3.0,85,0.00,,,0.00,Wunderground v.1.15,2013-10-01 13:37:00,
2013-10-01 09:42:00,67.2,61.5,30.08,SE,134,0.0,0.0,82,0.00,,,0.00,Wunderground v.1.15,2013-10-01 13:42:00,
2013-10-01 09:48:00,66.8,61.8,30.08,NE,46,0.0,0.0,84,0.00,,,0.00,Wunderground v.1.15,2013-10-01 13:48:00,
2013-10-01 09:54:00,67.0,62.0,30.08,SE,133,0.0,0.0,84,0.00,,,0.00,Wunderground v.1.15,2013-10-01 13:54:00,
2013-10-01 10:00:00,67.4,61.7,30.08,ENE,76,0.0,0.0,82,0.00,,,0.00,Wunderground v.1.15,2013-10-01 14:00:00,
2013-10-01 10:06:00,67.8,62.1,30.08,SE,135,0.0,1.0,82,0.00,,,0.00,Wunderground v.1.15,2013-10-01 14:06:00,
2013-10-01 10:11:00,68.2,62.5,30.08,ESE,108,0.0,0.0,82,0.00,,,0.00,Wunderground v.1.15,2013-10-01 14:11:00,
2013-10-01 10:17:00,68.9,62.5,30.08,SE,140,0.0,3.0,80,0.00,,,0.00,Wunderground v.1.15,2013-10-01 14:17:00,
2013-10-01 10:23:00,69.3,62.9,30.08,NE,46,1.0,1.0,80,0.00,,,0.00,Wunderground v.1.15,2013-10-01 14:23:00,
2013-10-01 10:28:00,69.7,62.9,30.08,SE,134,1.0,1.0,79,0.00,,,0.00,Wunderground v.1.15,2013-10-01 14:28:00,
2013-10-01 10:34:00,69.9,62.7,30.08,ESE,117,0.0,3.0,78,0.00,,,0.00,Wunderground v.1.15,2013-10-01 14:34:00,
2013-10-01 10:40:00,70.2,62.6,30.08,ESE,122,1.0,1.0,77,0.00,,,0.00,Wunderground v.1.15,2013-10-01 14:40:00,
2013-10-01 10:45:00,70.5,62.9,30.08,ESE,123,0.0,1.0,77,0.00,,,0.00,Wunderground v.1.15,2013-10-01 14:45:00,
2013-10-01 10:51:00,70.9,63.7,30.08,ESE,123,0.0,0.0,78,0.00,,,0.00,Wunderground v.1.15,2013-10-01 14:51:00,
2013-10-01 10:57:00,71.4,63.4,30.08,ESE,108,0.0,0.0,76,0.00,,,0.00,Wunderground v.1.15,2013-10-01 14:57:00,
2013-10-01 11:02:00,71.7,63.4,30.08,SE,145,0.0,0.0,75,0.00,,,0.00,Wunderground v.1.15,2013-10-01 15:02:00,
2013-10-01 11:07:00,72.1,63.4,30.08,SE,146,1.0,2.0,74,0.00,,,0.00,Wunderground v.1.15,2013-10-01 15:07:00,
2013-10-01 11:13:00,72.5,63.7,30.07,ESE,112,0.0,0.0,74,0.00,,,0.00,Wunderground v.1.15,2013-10-01 15:13:00,
2013-10-01 11:19:00,73.1,63.9,30.07,ESE,115,0.0,0.0,73,0.00,,,0.00,Wunderground v.1.15,2013-10-01 15:19:00,
2013-10-01 11:24:00,73.5,63.5,30.07,East,81,0.0,0.0,71,0.00,,,0.00,Wunderground v.1.15,2013-10-01 15:24:00,
2013-10-01 11:29:00,73.5,63.9,30.07,SE,134,0.0,2.0,72,0.00,,,0.00,Wunderground v.1.15,2013-10-01 15:29:00,
2013-10-01 11:35:00,73.5,63.9,30.07,ENE,68,0.0,1.0,72,0.00,,,0.00,Wunderground v.1.15,2013-10-01 15:35:00,
2013-10-01 11:40:00,73.2,63.6,30.06,ESE,116,0.0,0.0,72,0.00,,,0.00,Wunderground v.1.15,2013-10-01 15:40:00,
2013-10-01 11:46:00,73.2,64.0,30.06,ESE,111,0.0,1.0,73,0.00,,,0.00,Wunderground v.1.15,2013-10-01 15:46:00,
2013-10-01 11:51:00,73.7,64.5,30.06,East,82,0.0,0.0,73,0.00,,,0.00,Wunderground v.1.15,2013-10-01 15:51:00,
2013-10-01 11:57:00,73.9,64.3,30.06,ENE,57,0.0,4.0,72,0.00,,,0.00,Wunderground v.1.15,2013-10-01 15:57:00,
2013-10-01 12:02:00,73.9,63.5,30.06,SE,125,0.0,3.0,70,0.00,,,0.00,Wunderground v.1.15,2013-10-01 16:02:00,
2013-10-01 12:08:00,73.4,63.4,30.06,East,86,0.0,3.0,71,0.00,,,0.00,Wunderground v.1.15,2013-10-01 16:08:00,
2013-10-01 12:13:00,73.0,63.4,30.06,East,101,0.0,0.0,72,0.00,,,0.00,Wunderground v.1.15,2013-10-01 16:13:00,
2013-10-01 12:18:00,73.0,63.4,30.06,ESE,109,0.0,0.0,72,0.00,,,0.00,Wunderground v.1.15,2013-10-01 16:18:00,
2013-10-01 12:24:00,73.3,63.7,30.06,ENE,59,0.0,0.0,72,0.00,,,0.00,Wunderground v.1.15,2013-10-01 16:24:00,
2013-10-01 12:30:00,74.1,63.3,30.06,ESE,123,0.0,0.0,69,0.00,,,0.00,Wunderground v.1.15,2013-10-01 16:30:00,
2013-10-01 12:31:00,74.3,62.6,30.06,ESE,115,0.0,0.0,67,0.00,,,0.00,Wunderground v.1.15,2013-10-01 16:31:00,
2013-10-01 12:37:00,74.8,64.4,30.06,SE,142,0.0,2.0,70,0.00,,,0.00,Wunderground v.1.15,2013-10-01 16:37:00,
2013-10-01 12:42:00,74.6,62.9,30.05,SE,126,1.0,2.0,67,0.00,,,0.00,Wunderground v.1.15,2013-10-01 16:42:00,
2013-10-01 12:48:00,74.1,62.4,30.06,ENE,70,1.0,3.0,67,0.00,,,0.00,Wunderground v.1.15,2013-10-01 16:48:00,
2013-10-01 12:53:00,73.6,62.8,30.05,SE,140,1.0,1.0,69,0.00,,,0.00,Wunderground v.1.15,2013-10-01 16:53:00,
2013-10-01 12:58:00,73.9,63.5,30.05,SE,126,0.0,1.0,70,0.00,,,0.00,Wunderground v.1.15,2013-10-01 16:58:00,
2013-10-01 13:03:00,74.6,63.3,30.05,SE,128,0.0,3.0,68,0.00,,,0.00,Wunderground v.1.15,2013-10-01 17:03:00,
2013-10-01 13:09:00,75.3,62.7,30.05,ENE,65,0.0,3.0,65,0.00,,,0.00,Wunderground v.1.15,2013-10-01 17:09:00,
2013-10-01 13:15:00,76.1,64.8,30.05,ESE,118,0.0,1.0,68,0.00,,,0.00,Wunderground v.1.15,2013-10-01 17:15:00,
2013-10-01 13:21:00,76.9,63.8,30.05,ESE,104,0.0,0.0,64,0.00,,,0.00,Wunderground v.1.15,2013-10-01 17:21:00,
2013-10-01 13:27:00,76.5,62.0,30.04,SSW,207,0.0,2.0,61,0.00,,,0.00,Wunderground v.1.15,2013-10-01 17:27:00,
2013-10-01 13:32:00,75.7,61.3,30.04,ESE,106,0.0,0.0,61,0.00,,,0.00,Wunderground v.1.15,2013-10-01 17:32:00,
2013-10-01 13:37:00,75.7,62.2,30.04,East,98,0.0,3.0,63,0.00,,,0.00,Wunderground v.1.15,2013-10-01 17:37:00,
2013-10-01 13:43:00,76.1,61.7,30.04,SSE,150,1.0,2.0,61,0.00,,,0.00,Wunderground v.1.15,2013-10-01 17:43:00,
2013-10-01 13:48:00,76.4,62.4,30.04,ESE,123,1.0,2.0,62,0.00,,,0.00,Wunderground v.1.15,2013-10-01 17:48:00,
2013-10-01 13:53:00,76.9,63.8,30.03,SSE,161,1.0,1.0,64,0.00,,,0.00,Wunderground v.1.15,2013-10-01 17:53:00,
2013-10-01 13:59:00,77.5,63.5,30.03,SSE,154,0.0,1.0,62,0.00,,,0.00,Wunderground v.1.15,2013-10-01 17:59:00,
2013-10-01 14:04:00,77.3,62.8,30.03,NE,56,0.0,1.0,61,0.00,,,0.00,Wunderground v.1.15,2013-10-01 18:04:00,
2013-10-01 14:10:00,77.1,61.7,30.03,East,98,0.0,0.0,59,0.00,,,0.00,Wunderground v.1.15,2013-10-01 18:10:00,
2013-10-01 14:16:00,77.0,63.0,30.03,ESE,123,1.0,1.0,62,0.00,,,0.00,Wunderground v.1.15,2013-10-01 18:16:00,
2013-10-01 14:21:00,76.4,62.4,30.03,SSE,156,0.0,0.0,62,0.00,,,0.00,Wunderground v.1.15,2013-10-01 18:21:00,
2013-10-01 14:26:00,75.6,63.0,30.02,SE,134,0.0,0.0,65,0.00,,,0.00,Wunderground v.1.15,2013-10-01 18:26:00,
2013-10-01 14:32:00,75.2,63.1,30.02,ESE,104,0.0,0.0,66,0.00,,,0.00,Wunderground v.1.15,2013-10-01 18:32:00,
2013-10-01 14:37:00,75.3,62.3,30.02,SE,134,0.0,3.0,64,0.00,,,0.00,Wunderground v.1.15,2013-10-01 18:37:00,
2013-10-01 14:43:00,75.5,62.0,30.02,ESE,123,1.0,3.0,63,0.00,,,0.00,Wunderground v.1.15,2013-10-01 18:43:00,
2013-10-01 14:49:00,75.6,62.1,30.02,SSE,157,1.0,3.0,63,0.00,,,0.00,Wunderground v.1.15,2013-10-01 18:49:00,
2013-10-01 14:54:00,75.9,61.9,30.02,SE,132,1.0,1.0,62,0.00,,,0.00,Wunderground v.1.15,2013-10-01 18:54:00,
2013-10-01 15:00:00,75.8,63.2,30.02,ESE,115,0.0,0.0,65,0.00,,,0.00,Wunderground v.1.15,2013-10-01 19:00:00,
2013-10-01 15:06:00,75.7,62.7,30.01,East,88,0.0,1.0,64,0.00,,,0.00,Wunderground v.1.15,2013-10-01 19:06:00,
2013-10-01 15:12:00,75.5,63.3,30.01,ESE,107,0.0,0.0,66,0.00,,,0.00,Wunderground v.1.15,2013-10-01 19:12:00,
2013-10-01 15:17:00,75.4,62.8,30.01,ESE,120,0.0,1.0,65,0.00,,,0.00,Wunderground v.1.15,2013-10-01 19:17:00,
2013-10-01 15:23:00,75.2,63.1,30.01,ENE,69,1.0,2.0,66,0.00,,,0.00,Wunderground v.1.15,2013-10-01 19:23:00,
2013-10-01 15:29:00,75.0,62.4,30.01,SE,128,0.0,2.0,65,0.00,,,0.00,Wunderground v.1.15,2013-10-01 19:29:00,
2013-10-01 15:34:00,75.0,62.9,30.00,ESE,117,0.0,3.0,66,0.00,,,0.00,Wunderground v.1.15,2013-10-01 19:34:00,
2013-10-01 15:40:00,74.9,62.3,30.00,SE,133,0.0,0.0,65,0.00,,,0.00,Wunderground v.1.15,2013-10-01 19:40:00,
2013-10-01 15:45:00,74.7,62.6,30.00,ESE,110,0.0,0.0,66,0.00,,,0.00,Wunderground v.1.15,2013-10-01 19:45:00,
2013-10-01 15:50:00,74.4,61.4,30.00,SSE,155,0.0,0.0,64,0.00,,,0.00,Wunderground v.1.15,2013-10-01 19:50:00,
2013-10-01 15:56:00,73.9,61.8,30.00,SE,132,0.0,1.0,66,0.00,,,0.00,Wunderground v.1.15,2013-10-01 19:56:00,
2013-10-01 16:01:00,73.5,62.7,30.00,East,96,0.0,0.0,69,0.00,,,0.00,Wunderground v.1.15,2013-10-01 20:01:00,
2013-10-01 16:06:00,73.2,62.4,30.00,ESE,102,0.0,1.0,69,0.00,,,0.00,Wunderground v.1.15,2013-10-01 20:06:00,
2013-10-01 16:12:00,73.2,62.4,30.00,SSE,159,0.0,0.0,69,0.00,,,0.00,Wunderground v.1.15,2013-10-01 20:12:00,
2013-10-01 16:18:00,73.2,63.2,29.99,SE,143,0.0,0.0,71,0.00,,,0.00,Wunderground v.1.15,2013-10-01 20:18:00,
2013-10-01 16:23:00,73.3,62.9,29.99,ENE,62,0.0,0.0,70,0.00,,,0.00,Wunderground v.1.15,2013-10-01 20:23:00,
2013-10-01 16:29:00,73.2,62.8,29.99,East,85,0.0,1.0,70,0.00,,,0.00,Wunderground v.1.15,2013-10-01 20:29:00,
2013-10-01 16:35:00,73.3,61.7,29.99,SE,129,0.0,0.0,67,0.00,,,0.00,Wunderground v.1.15,2013-10-01 20:35:00,
2013-10-01 16:41:00,73.5,63.5,29.99,East,88,0.0,0.0,71,0.00,,,0.00,Wunderground v.1.15,2013-10-01 20:41:00,
2013-10-01 16:46:00,73.3,62.1,29.99,SE,140,0.0,0.0,68,0.00,,,0.00,Wunderground v.1.15,2013-10-01 20:46:00,
2013-10-01 16:51:00,73.4,63.8,30.00,SE,129,0.0,0.0,72,0.00,,,0.00,Wunderground v.1.15,2013-10-01 20:51:00,
2013-10-01 16:57:00,73.0,62.6,29.99,ESE,108,0.0,1.0,70,0.00,,,0.00,Wunderground v.1.15,2013-10-01 20:57:00,
2013-10-01 17:02:00,72.6,62.3,30.00,ESE,108,0.0,0.0,70,0.00,,,0.00,Wunderground v.1.15,2013-10-01 21:02:00,
2013-10-01 17:08:00,72.1,62.2,29.99,ESE,108,0.0,0.0,71,0.00,,,0.00,Wunderground v.1.15,2013-10-01 21:08:00,
2013-10-01 17:14:00,71.6,62.1,30.00,ESE,103,0.0,0.0,72,0.00,,,0.00,Wunderground v.1.15,2013-10-01 21:14:00,
2013-10-01 17:20:00,71.2,62.1,30.00,ESE,103,0.0,0.0,73,0.00,,,0.00,Wunderground v.1.15,2013-10-01 21:20:00,
2013-10-01 17:26:00,71.1,62.0,30.00,SSE,165,0.0,0.0,73,0.00,,,0.00,Wunderground v.1.15,2013-10-01 21:26:00,
2013-10-01 17:32:00,70.8,62.9,29.99,SSE,165,0.0,0.0,76,0.00,,,0.00,Wunderground v.1.15,2013-10-01 21:32:00,
2013-10-01 17:38:00,70.5,61.8,29.99,SSE,165,0.0,0.0,74,0.00,,,0.00,Wunderground v.1.15,2013-10-01 21:38:00,
2013-10-01 17:44:00,70.5,61.8,29.99,SSE,157,0.0,0.0,74,0.00,,,0.00,Wunderground v.1.15,2013-10-01 21:44:00,
2013-10-01 17:50:00,70.6,62.3,29.99,NE,53,0.0,0.0,75,0.00,,,0.00,Wunderground v.1.15,2013-10-01 21:50:00,
2013-10-01 17:55:00,70.4,61.3,30.00,NE,53,0.0,0.0,73,0.00,,,0.00,Wunderground v.1.15,2013-10-01 21:55:00,
2013-10-01 18:00:00,70.2,61.9,30.00,ESE,109,0.0,0.0,75,0.00,,,0.00,Wunderground v.1.15,2013-10-01 22:00:00,
2013-10-01 18:06:00,69.8,62.3,30.00,ESE,109,0.0,0.0,77,0.00,,,0.00,Wunderground v.1.15,2013-10-01 22:06:00,
2013-10-01 18:12:00,69.4,61.9,30.00,ESE,109,0.0,0.0,77,0.00,,,0.00,Wunderground v.1.15,2013-10-01 22:12:00,
2013-10-01 18:18:00,69.0,62.2,30.00,ESE,109,0.0,0.0,79,0.00,,,0.00,Wunderground v.1.15,2013-10-01 22:18:00,
2013-10-01 18:23:00,68.6,61.8,30.00,ESE,109,0.0,0.0,79,0.00,,,0.00,Wunderground v.1.15,2013-10-01 22:23:00,
2013-10-01 18:29:00,68.2,61.4,30.00,ESE,109,0.0,0.0,79,0.00,,,0.00,Wunderground v.1.15,2013-10-01 22:29:00,
2013-10-01 18:34:00,68.0,61.9,30.00,ESE,109,0.0,0.0,81,0.00,,,0.00,Wunderground v.1.15,2013-10-01 22:34:00,
2013-10-01 18:39:00,67.6,60.9,30.00,ESE,109,0.0,0.0,79,0.00,,,0.00,Wunderground v.1.15,2013-10-01 22:39:00,
2013-10-01 18:45:00,67.4,61.0,30.00,ESE,109,0.0,0.0,80,0.00,,,0.00,Wunderground v.1.15,2013-10-01 22:45:00,
2013-10-01 18:51:00,67.0,61.0,30.00,ESE,109,0.0,0.0,81,0.00,,,0.00,Wunderground v.1.15,2013-10-01 22:51:00,
2013-10-01 18:57:00,66.7,60.7,30.00,ESE,109,0.0,0.0,81,0.00,,,0.00,Wunderground v.1.15,2013-10-01 22:57:00,
2013-10-01 19:03:00,66.4,60.4,30.00,ESE,109,0.0,0.0,81,0.00,,,0.00,Wunderground v.1.15,2013-10-01 23:03:00,
2013-10-01 19:09:00,66.0,60.3,30.00,ESE,109,0.0,0.0,82,0.00,,,0.00,Wunderground v.1.15,2013-10-01 23:09:00,
2013-10-01 19:14:00,65.8,60.5,30.00,ESE,109,0.0,0.0,83,0.00,,,0.00,Wunderground v.1.15,2013-10-01 23:14:00,
2013-10-01 19:20:00,65.4,60.4,30.00,ESE,109,0.0,0.0,84,0.00,,,0.00,Wunderground v.1.15,2013-10-01 23:20:00,
2013-10-01 19:21:00,65.4,60.4,30.00,ESE,109,0.0,0.0,84,0.00,,,0.00,Wunderground v.1.15,2013-10-01 23:21:00,
2013-10-01 19:26:00,65.0,60.0,30.00,ESE,109,0.0,0.0,84,0.00,,,0.00,Wunderground v.1.15,2013-10-01 23:26:00,
2013-10-01 19:31:00,64.8,59.9,30.00,ESE,109,0.0,0.0,84,0.00,,,0.00,Wunderground v.1.15,2013-10-01 23:31:00,
2013-10-01 19:32:00,64.7,60.1,30.00,ESE,109,0.0,0.0,85,0.00,,,0.00,Wunderground v.1.15,2013-10-01 23:32:00,
2013-10-01 19:38:00,64.4,59.8,30.00,ESE,109,0.0,0.0,85,0.00,,,0.00,Wunderground v.1.15,2013-10-01 23:38:00,
2013-10-01 19:43:00,64.1,59.8,30.00,ESE,109,0.0,0.0,86,0.00,,,0.00,Wunderground v.1.15,2013-10-01 23:43:00,
2013-10-01 19:49:00,63.9,59.3,30.00,ESE,109,0.0,0.0,85,0.00,,,0.00,Wunderground v.1.15,2013-10-01 23:49:00,
2013-10-01 19:54:00,63.6,59.3,30.00,ESE,109,0.0,0.0,86,0.00,,,0.00,Wunderground v.1.15,2013-10-01 23:54:00,
2013-10-01 19:59:00,63.4,59.5,30.01,ESE,109,0.0,0.0,87,0.00,,,0.00,Wunderground v.1.15,2013-10-01 23:59:00,
2013-10-01 20:05:00,63.1,59.2,30.01,ESE,109,0.0,0.0,87,0.00,,,0.00,Wunderground v.1.15,2013-10-02 00:05:00,
2013-10-01 20:10:00,62.9,59.3,30.01,ESE,109,0.0,0.0,88,0.00,,,0.00,Wunderground v.1.15,2013-10-02 00:10:00,
2013-10-01 20:15:00,62.7,58.8,30.01,ESE,109,0.0,0.0,87,0.00,,,0.00,Wunderground v.1.15,2013-10-02 00:15:00,
2013-10-01 20:20:00,62.5,58.6,30.01,ESE,109,0.0,0.0,87,0.00,,,0.00,Wunderground v.1.15,2013-10-02 00:20:00,
2013-10-01 20:25:00,62.4,58.8,30.01,ESE,109,0.0,0.0,88,0.00,,,0.00,Wunderground v.1.15,2013-10-02 00:25:00,
2013-10-01 20:30:00,62.2,58.9,30.01,ESE,109,0.0,0.0,89,0.00,,,0.00,Wunderground v.1.15,2013-10-02 00:30:00,
2013-10-01 20:35:00,62.1,58.8,30.01,ESE,109,0.0,0.0,89,0.00,,,0.00,Wunderground v.1.15,2013-10-02 00:35:00,
2013-10-01 20:41:00,61.8,58.5,30.01,ESE,109,0.0,0.0,89,0.00,,,0.00,Wunderground v.1.15,2013-10-02 00:41:00,
2013-10-01 20:47:00,61.6,58.3,30.02,ESE,109,0.0,0.0,89,0.00,,,0.00,Wunderground v.1.15,2013-10-02 00:47:00,
2013-10-01 20:52:00,61.4,58.4,30.02,ESE,109,0.0,0.0,90,0.00,,,0.00,Wunderground v.1.15,2013-10-02 00:52:00,
2013-10-01 20:57:00,61.3,58.3,30.01,ESE,109,0.0,0.0,90,0.00,,,0.00,Wunderground v.1.15,2013-10-02 00:57:00,
2013-10-01 21:02:00,61.1,58.1,30.01,ESE,109,0.0,0.0,90,0.00,,,0.00,Wunderground v.1.15,2013-10-02 01:02:00,
2013-10-01 21:07:00,61.0,58.0,30.01,ESE,109,0.0,0.0,90,0.00,,,0.00,Wunderground v.1.15,2013-10-02 01:07:00,
2013-10-01 21:13:00,60.9,58.3,30.01,ESE,109,0.0,0.0,91,0.00,,,0.00,Wunderground v.1.15,2013-10-02 01:13:00,
2013-10-01 21:18:00,60.7,58.1,30.02,ESE,109,0.0,0.0,91,0.00,,,0.00,Wunderground v.1.15,2013-10-02 01:18:00,
2013-10-01 21:24:00,60.6,58.0,30.02,ESE,109,0.0,0.0,91,0.00,,,0.00,Wunderground v.1.15,2013-10-02 01:24:00,
2013-10-01 21:29:00,60.5,57.9,30.02,ESE,109,0.0,0.0,91,0.00,,,0.00,Wunderground v.1.15,2013-10-02 01:29:00,
2013-10-01 21:34:00,60.3,57.7,30.02,ESE,109,0.0,0.0,91,0.00,,,0.00,Wunderground v.1.15,2013-10-02 01:34:00,
2013-10-01 21:39:00,60.2,57.9,30.02,ESE,109,0.0,0.0,92,0.00,,,0.00,Wunderground v.1.15,2013-10-02 01:39:00,
2013-10-01 21:44:00,60.0,57.7,30.02,ESE,109,0.0,0.0,92,0.00,,,0.00,Wunderground v.1.15,2013-10-02 01:44:00,
2013-10-01 21:50:00,59.9,57.6,30.02,ESE,109,0.0,0.0,92,0.00,,,0.00,Wunderground v.1.15,2013-10-02 01:50:00,
2013-10-01 21:55:00,59.8,57.5,30.02,ESE,109,0.0,0.0,92,0.00,,,0.00,Wunderground v.1.15,2013-10-02 01:55:00,
2013-10-01 22:01:00,59.6,57.3,30.02,ESE,109,0.0,0.0,92,0.00,,,0.00,Wunderground v.1.15,2013-10-02 02:01:00,
2013-10-01 22:06:00,59.5,57.5,30.03,ESE,109,0.0,0.0,93,0.00,,,0.00,Wunderground v.1.15,2013-10-02 02:06:00,
2013-10-01 22:11:00,59.4,57.4,30.03,ESE,109,0.0,0.0,93,0.00,,,0.00,Wunderground v.1.15,2013-10-02 02:11:00,
2013-10-01 22:16:00,59.2,57.2,30.03,ESE,109,0.0,0.0,93,0.00,,,0.00,Wunderground v.1.15,2013-10-02 02:16:00,
2013-10-01 22:21:00,59.1,57.1,30.03,ESE,109,0.0,0.0,93,0.00,,,0.00,Wunderground v.1.15,2013-10-02 02:21:00,
2013-10-01 22:27:00,59.1,57.1,30.03,ESE,109,0.0,0.0,93,0.00,,,0.00,Wunderground v.1.15,2013-10-02 02:27:00,
2013-10-01 22:33:00,59.0,57.0,30.03,ESE,109,0.0,0.0,93,0.00,,,0.00,Wunderground v.1.15,2013-10-02 02:33:00,
2013-10-01 22:38:00,58.9,56.9,30.03,ESE,109,0.0,0.0,93,0.00,,,0.00,Wunderground v.1.15,2013-10-02 02:38:00,
2013-10-01 22:44:00,58.7,57.0,30.03,ESE,109,0.0,0.0,94,0.00,,,0.00,Wunderground v.1.15,2013-10-02 02:44:00,
2013-10-01 22:49:00,58.6,56.9,30.03,ESE,109,0.0,0.0,94,0.00,,,0.00,Wunderground v.1.15,2013-10-02 02:49:00,
2013-10-01 22:54:00,58.6,56.9,30.03,ESE,109,0.0,0.0,94,0.00,,,0.00,Wunderground v.1.15,2013-10-02 02:54:00,
2013-10-01 23:00:00,58.5,56.8,30.03,ESE,109,0.0,0.0,94,0.00,,,0.00,Wunderground v.1.15,2013-10-02 03:00:00,
2013-10-01 23:06:00,58.4,56.7,30.03,ESE,109,0.0,0.0,94,0.00,,,0.00,Wunderground v.1.15,2013-10-02 03:06:00,
2013-10-01 23:11:00,58.3,56.6,30.03,ESE,109,0.0,0.0,94,0.00,,,0.00,Wunderground v.1.15,2013-10-02 03:11:00,
2013-10-01 23:16:00,58.2,56.5,30.03,ESE,109,0.0,0.0,94,0.00,,,0.00,Wunderground v.1.15,2013-10-02 03:16:00,
2013-10-01 23:22:00,58.0,56.3,30.03,ESE,109,0.0,0.0,94,0.00,,,0.00,Wunderground v.1.15,2013-10-02 03:22:00,
2013-10-01 23:27:00,58.0,56.3,30.04,ESE,109,0.0,0.0,94,0.00,,,0.00,Wunderground v.1.15,2013-10-02 03:27:00,
2013-10-01 23:32:00,57.9,56.2,30.04,ESE,109,0.0,0.0,94,0.00,,,0.00,Wunderground v.1.15,2013-10-02 03:32:00,
2013-10-01 23:38:00,57.8,56.1,30.04,ESE,109,0.0,0.0,94,0.00,,,0.00,Wunderground v.1.15,2013-10-02 03:38:00,
2013-10-01 23:43:00,57.6,55.9,30.04,ESE,109,0.0,0.0,94,0.00,,,0.00,Wunderground v.1.15,2013-10-02 03:43:00,
2013-10-01 23:48:00,57.6,56.2,30.04,ESE,109,0.0,0.0,95,0.00,,,0.00,Wunderground v.1.15,2013-10-02 03:48:00,
2013-10-01 23:53:00,57.7,56.3,30.04,ESE,109,0.0,0.0,95,0.00,,,0.00,Wunderground v.1.15,2013-10-02 03:53:00,
2013-10-01 23:59:00,57.6,56.2,30.04,ESE,109,0.0,0.0,95,0.00,,,0.00,Wunderground v.1.15,2013-10-02 03:59:00,